createdAt,value
2023-05-01T00:00:28.598Z,15.20
2023-05-01T00:02:55.808Z,15.20
2023-05-01T00:05:22.622Z,15.20
2023-05-01T00:07:49.697Z,15.20
2023-05-01T00:10:17.102Z,15.20
2023-05-01T00:12:43.910Z,15.20
2023-05-01T00:15:11.040Z,15.20
2023-05-01T00:17:37.843Z,15.10
2023-05-01T00:20:05.465Z,15.10
2023-05-01T00:22:32.386Z,15.10
2023-05-01T00:24:59.266Z,15.00
2023-05-01T00:27:26.245Z,15.00
2023-05-01T00:29:53.076Z,15.00
2023-05-01T00:32:19.914Z,14.90
2023-05-01T00:34:48.172Z,14.90
2023-05-01T00:37:15.396Z,14.90
2023-05-01T00:39:42.213Z,14.90
2023-05-01T00:42:09.101Z,14.80
2023-05-01T00:44:35.936Z,14.80
2023-05-01T00:47:04.414Z,14.80
2023-05-01T00:49:31.700Z,14.80
2023-05-01T00:51:58.810Z,14.70
2023-05-01T00:54:27.662Z,14.70
2023-05-01T00:56:54.806Z,14.70
2023-05-01T00:59:22.341Z,14.70
2023-05-01T01:01:50.440Z,14.70
2023-05-01T01:04:17.340Z,14.70
2023-05-01T01:07:21.523Z,14.50
2023-05-01T01:10:00.310Z,14.60
2023-05-01T01:12:47.573Z,14.50
2023-05-01T01:15:25.014Z,14.50
2023-05-01T01:18:06.892Z,14.50
2023-05-01T01:20:37.864Z,14.50
2023-05-01T01:23:32.733Z,14.40
2023-05-01T01:26:37.374Z,14.40
2023-05-01T01:29:23.270Z,14.40
2023-05-01T01:31:57.222Z,14.40
2023-05-01T01:34:44.519Z,14.40
2023-05-01T01:37:25.379Z,14.40
2023-05-01T01:40:02.625Z,14.40
2023-05-01T01:42:38.999Z,14.40
2023-05-01T01:45:11.944Z,14.40
2023-05-01T01:47:42.234Z,14.40
2023-05-01T01:50:12.723Z,14.40
2023-05-01T01:52:41.151Z,14.40
2023-05-01T01:55:11.727Z,14.40
2023-05-01T01:57:40.520Z,14.30
2023-05-01T02:00:11.072Z,14.40
2023-05-01T02:02:41.380Z,14.40
2023-05-01T02:05:11.469Z,14.40
2023-05-01T02:07:40.632Z,14.40
2023-05-01T02:10:09.559Z,14.40
2023-05-01T02:12:37.770Z,14.30
2023-05-01T02:15:07.976Z,14.30
2023-05-01T02:17:36.763Z,14.40
2023-05-01T02:20:05.540Z,14.30
2023-05-01T02:22:33.461Z,14.30
2023-05-01T02:25:01.877Z,14.30
2023-05-01T02:27:32.553Z,14.30
2023-05-01T02:29:59.481Z,14.30
2023-05-01T02:32:26.686Z,14.40
2023-05-01T02:34:53.998Z,14.40
2023-05-01T02:37:21.259Z,14.40
2023-05-01T02:39:48.754Z,14.40
2023-05-01T02:42:17.762Z,14.40
2023-05-01T02:45:07.753Z,14.50
2023-05-01T02:47:38.242Z,14.40
2023-05-01T02:50:06.959Z,14.40
2023-05-01T02:52:36.253Z,14.40
2023-05-01T02:55:29.838Z,14.50
2023-05-01T02:58:00.185Z,14.50
2023-05-01T03:00:28.006Z,14.50
2023-05-01T03:02:55.008Z,14.40
2023-05-01T03:05:22.749Z,14.40
2023-05-01T03:07:51.212Z,14.50
2023-05-01T03:10:18.274Z,14.50
2023-05-01T03:12:45.362Z,14.50
2023-05-01T03:15:13.042Z,14.50
2023-05-01T03:17:39.943Z,14.50
2023-05-01T03:20:09.460Z,14.50
2023-05-01T03:22:36.523Z,14.50
2023-05-01T03:25:04.357Z,14.50
2023-05-01T03:27:32.431Z,14.50
2023-05-01T03:29:59.220Z,14.50
2023-05-01T03:32:28.326Z,14.50
2023-05-01T03:34:56.327Z,14.50
2023-05-01T03:37:23.125Z,14.50
2023-05-01T03:39:50.039Z,14.60
2023-05-01T03:42:20.347Z,14.60
2023-05-01T03:44:47.870Z,14.60
2023-05-01T03:47:14.970Z,14.60
2023-05-01T03:49:43.651Z,14.70
2023-05-01T03:52:14.579Z,14.70
2023-05-01T03:54:42.893Z,14.70
2023-05-01T03:57:38.964Z,14.70
2023-05-01T04:00:07.426Z,14.70
2023-05-01T04:02:42.472Z,14.70
2023-05-01T04:05:13.285Z,14.70
2023-05-01T04:07:43.584Z,14.60
2023-05-01T04:10:10.743Z,14.70
2023-05-01T04:12:42.504Z,14.80
2023-05-01T04:15:09.939Z,14.80
2023-05-01T04:17:37.728Z,14.70
2023-05-01T04:20:08.402Z,14.70
2023-05-01T04:22:35.606Z,14.70
2023-05-01T04:25:02.544Z,14.70
2023-05-01T04:27:29.677Z,14.70
2023-05-01T04:29:57.228Z,14.60
2023-05-01T04:32:24.394Z,14.70
2023-05-01T04:34:51.279Z,14.70
2023-05-01T04:37:18.663Z,14.70
2023-05-01T04:39:45.745Z,14.80
2023-05-01T04:42:12.685Z,14.80
2023-05-01T04:44:40.282Z,14.80
2023-05-01T04:47:07.568Z,14.80
2023-05-01T04:49:35.954Z,14.90
2023-05-01T04:52:05.161Z,14.80
2023-05-01T04:54:44.569Z,14.80
2023-05-01T04:57:11.553Z,14.80
2023-05-01T04:59:39.688Z,14.80
2023-05-01T05:02:06.711Z,14.90
2023-05-01T05:04:33.662Z,14.80
2023-05-01T05:07:00.978Z,14.80
2023-05-01T05:09:42.264Z,14.80
2023-05-01T05:12:09.161Z,14.80
2023-05-01T05:14:36.603Z,14.80
2023-05-01T05:17:03.491Z,14.80
2023-05-01T05:19:30.581Z,14.80
2023-05-01T05:21:57.351Z,14.80
2023-05-01T05:24:24.255Z,14.90
2023-05-01T05:26:51.273Z,14.90
2023-05-01T05:29:18.279Z,15.00
2023-05-01T05:31:45.496Z,15.00
2023-05-01T05:34:12.477Z,15.00
2023-05-01T05:36:39.485Z,15.10
2023-05-01T05:39:06.504Z,15.10
2023-05-01T05:41:34.002Z,15.20
2023-05-01T05:44:02.975Z,15.20
2023-05-01T05:46:29.815Z,15.20
2023-05-01T05:48:56.738Z,15.30
2023-05-01T05:51:25.328Z,15.30
2023-05-01T05:53:53.174Z,15.30
2023-05-01T05:56:20.231Z,15.40
2023-05-01T05:58:47.399Z,15.40
2023-05-01T06:01:15.063Z,15.50
2023-05-01T06:03:42.200Z,15.50
2023-05-01T06:06:09.483Z,15.50
2023-05-01T06:08:37.690Z,15.50
2023-05-01T06:11:09.086Z,15.60
2023-05-01T06:13:38.731Z,15.60
2023-05-01T06:16:07.538Z,15.60
2023-05-01T06:18:34.641Z,15.70
2023-05-01T06:21:01.524Z,15.70
2023-05-01T06:23:28.366Z,15.80
2023-05-01T06:26:15.100Z,15.80
2023-05-01T06:28:41.995Z,15.90
2023-05-01T06:31:08.969Z,16.00
2023-05-01T06:33:40.699Z,16.20
2023-05-01T06:36:19.020Z,16.20
2023-05-01T06:38:48.824Z,16.30
2023-05-01T06:41:17.082Z,16.30
2023-05-01T06:43:45.222Z,16.40
2023-05-01T06:46:12.568Z,16.50
2023-05-01T06:48:39.471Z,16.50
2023-05-01T06:51:06.374Z,16.60
2023-05-01T06:53:33.568Z,16.60
2023-05-01T06:56:00.505Z,16.60
2023-05-01T06:58:27.344Z,16.70
2023-05-01T07:00:54.461Z,16.70
2023-05-01T07:03:21.747Z,16.70
2023-05-01T07:05:48.618Z,16.70
2023-05-01T07:08:15.405Z,16.80
2023-05-01T07:10:42.636Z,16.80
2023-05-01T07:13:09.786Z,16.80
2023-05-01T07:15:37.194Z,16.90
2023-05-01T07:18:06.213Z,16.90
2023-05-01T07:20:34.521Z,16.90
2023-05-01T07:23:01.415Z,17.00
2023-05-01T07:25:28.226Z,17.00
2023-05-01T07:27:55.055Z,17.10
2023-05-01T07:30:21.922Z,17.20
2023-05-01T07:32:48.978Z,17.30
2023-05-01T07:35:15.890Z,17.50
2023-05-01T07:37:42.750Z,17.50
2023-05-01T07:40:10.004Z,17.50
2023-05-01T07:42:36.884Z,17.50
2023-05-01T07:45:04.199Z,17.50
2023-05-01T07:47:30.996Z,17.50
2023-05-01T07:49:58.233Z,17.40
2023-05-01T07:52:25.157Z,17.40
2023-05-01T07:54:52.253Z,17.30
2023-05-01T07:57:19.098Z,17.40
2023-05-01T07:59:46.008Z,17.40
2023-05-01T08:02:13.873Z,17.50
2023-05-01T08:04:41.712Z,17.50
2023-05-01T08:07:08.801Z,17.50
2023-05-01T08:09:35.758Z,17.50
2023-05-01T08:12:04.000Z,17.60
2023-05-01T08:14:31.190Z,17.50
2023-05-01T08:16:58.447Z,17.60
2023-05-01T08:19:26.997Z,17.60
2023-05-01T08:21:54.157Z,17.60
2023-05-01T08:24:20.986Z,17.60
2023-05-01T08:26:48.789Z,17.60
2023-05-01T08:29:15.970Z,17.60
2023-05-01T08:31:43.744Z,17.60
2023-05-01T08:34:10.829Z,17.60
2023-05-01T08:36:38.236Z,17.60
2023-05-01T08:39:05.546Z,17.70
2023-05-01T08:41:33.054Z,17.70
2023-05-01T08:44:04.295Z,17.70
2023-05-01T08:47:01.861Z,17.70
2023-05-01T08:49:32.700Z,17.70
2023-05-01T08:52:02.413Z,17.70
2023-05-01T08:54:31.599Z,17.70
2023-05-01T08:57:05.931Z,17.70
2023-05-01T08:59:35.618Z,17.70
2023-05-01T09:02:04.471Z,17.80
2023-05-01T09:04:41.526Z,17.90
2023-05-01T09:07:10.133Z,17.90
2023-05-01T09:09:37.133Z,18.00
2023-05-01T09:12:23.581Z,18.00
2023-05-01T09:14:52.808Z,18.00
2023-05-01T09:17:21.036Z,18.10
2023-05-01T09:19:51.656Z,18.10
2023-05-01T09:22:19.747Z,18.20
2023-05-01T09:24:46.989Z,18.30
2023-05-01T09:27:14.604Z,18.40
2023-05-01T09:29:46.654Z,18.50
2023-05-01T09:32:20.832Z,18.70
2023-05-01T09:34:49.427Z,18.70
2023-05-01T09:37:34.030Z,18.80
2023-05-01T09:40:11.053Z,18.70
2023-05-01T09:42:39.746Z,19.10
2023-05-01T09:45:14.277Z,19.40
2023-05-01T09:47:42.624Z,19.60
2023-05-01T09:50:10.224Z,19.90
2023-05-01T09:52:37.231Z,20.10
2023-05-01T09:55:15.682Z,20.30
2023-05-01T09:57:43.825Z,20.50
2023-05-01T10:00:12.338Z,20.70
2023-05-01T10:02:40.722Z,20.90
2023-05-01T10:05:11.322Z,21.30
2023-05-01T10:07:39.290Z,21.90
2023-05-01T10:10:19.134Z,22.20
2023-05-01T10:12:46.636Z,22.10
2023-05-01T10:15:24.703Z,22.10
2023-05-01T10:17:53.646Z,22.10
2023-05-01T10:20:20.877Z,22.10
2023-05-01T10:22:49.033Z,22.00
2023-05-01T10:25:18.113Z,22.10
2023-05-01T10:27:45.521Z,22.20
2023-05-01T10:30:12.826Z,22.30
2023-05-01T10:32:41.791Z,22.30
2023-05-01T10:35:21.588Z,22.10
2023-05-01T10:37:54.322Z,21.80
2023-05-01T10:40:39.334Z,21.60
2023-05-01T10:43:26.178Z,21.40
2023-05-01T10:45:54.625Z,21.20
2023-05-01T10:48:39.800Z,21.10
2023-05-01T10:51:28.131Z,21.10
2023-05-01T10:54:13.917Z,21.10
2023-05-01T10:56:44.167Z,21.20
2023-05-01T10:59:12.870Z,21.30
2023-05-01T11:01:42.150Z,21.30
2023-05-01T11:04:24.570Z,21.40
2023-05-01T11:07:10.941Z,21.40
2023-05-01T11:09:45.083Z,21.40
2023-05-01T11:12:13.558Z,21.50
2023-05-01T11:14:57.461Z,21.50
2023-05-01T11:17:39.864Z,21.60
2023-05-01T11:20:07.718Z,21.70
2023-05-01T11:22:36.063Z,21.80
2023-05-01T11:25:04.567Z,21.80
2023-05-01T11:27:32.010Z,21.90
2023-05-01T11:29:59.566Z,22.00
2023-05-01T11:32:30.197Z,22.10
2023-05-01T11:34:57.800Z,22.30
2023-05-01T11:37:44.580Z,22.40
2023-05-01T11:40:31.967Z,22.50
2023-05-01T11:43:06.868Z,22.70
2023-05-01T11:45:35.532Z,22.90
2023-05-01T11:48:04.606Z,23.00
2023-05-01T11:50:33.741Z,23.30
2023-05-01T11:53:00.822Z,25.20
2023-05-01T11:55:35.143Z,28.30
2023-05-01T11:58:02.708Z,31.30
2023-05-01T12:00:31.683Z,31.70
2023-05-01T12:03:03.832Z,31.00
2023-05-01T12:05:34.444Z,31.00
2023-05-01T12:08:19.101Z,31.30
2023-05-01T12:10:55.988Z,33.00
2023-05-01T12:13:23.820Z,34.00
2023-05-01T12:15:55.126Z,34.60
2023-05-01T12:18:22.561Z,33.60
2023-05-01T12:20:52.136Z,31.80
2023-05-01T12:23:30.434Z,30.20
2023-05-01T12:25:57.413Z,28.90
2023-05-01T12:28:24.787Z,27.60
2023-05-01T12:30:51.717Z,26.40
2023-05-01T12:33:23.055Z,25.40
2023-05-01T12:35:50.766Z,24.70
2023-05-01T12:38:20.031Z,24.20
2023-05-01T12:40:54.086Z,23.70
2023-05-01T12:43:22.665Z,23.40
2023-05-01T12:45:52.915Z,23.30
2023-05-01T12:48:20.205Z,23.20
2023-05-01T12:50:54.376Z,22.90
2023-05-01T12:53:25.920Z,22.60
2023-05-01T12:55:57.649Z,22.30
2023-05-01T12:58:35.071Z,22.00
2023-05-01T13:01:02.131Z,21.90
2023-05-01T13:03:30.683Z,21.70
2023-05-01T13:06:00.638Z,21.50
2023-05-01T13:08:32.608Z,21.50
2023-05-01T13:11:01.791Z,21.40
2023-05-01T13:13:34.251Z,21.20
2023-05-01T13:16:06.323Z,21.10
2023-05-01T13:18:34.675Z,21.10
2023-05-01T13:21:09.700Z,21.00
2023-05-01T13:23:39.886Z,20.90
2023-05-01T13:26:08.109Z,20.80
2023-05-01T13:28:36.675Z,20.80
2023-05-01T13:31:11.777Z,20.70
2023-05-01T13:33:41.323Z,20.60
2023-05-01T13:36:22.162Z,20.60
2023-05-01T13:38:55.731Z,20.60
2023-05-01T13:41:25.577Z,20.60
2023-05-01T13:43:53.678Z,20.60
2023-05-01T13:46:22.736Z,20.50
2023-05-01T13:48:50.015Z,20.30
2023-05-01T13:51:25.243Z,20.30
2023-05-01T13:53:53.655Z,20.30
2023-05-01T13:56:21.985Z,20.30
2023-05-01T13:58:50.240Z,20.30
2023-05-01T14:01:20.561Z,20.30
2023-05-01T14:03:48.456Z,20.30
2023-05-01T14:06:17.153Z,20.30
2023-05-01T14:08:45.036Z,20.20
2023-05-01T14:11:13.031Z,20.10
2023-05-01T14:13:45.856Z,20.20
2023-05-01T14:16:27.444Z,20.20
2023-05-01T14:18:57.665Z,20.40
2023-05-01T14:21:27.849Z,20.70
2023-05-01T14:23:56.611Z,21.00
2023-05-01T14:26:24.546Z,21.50
2023-05-01T14:28:51.508Z,22.00
2023-05-01T14:31:27.472Z,22.30
2023-05-01T14:34:06.707Z,22.60
2023-05-01T14:36:33.894Z,22.70
2023-05-01T14:39:03.109Z,22.70
2023-05-01T14:41:30.323Z,22.70
2023-05-01T14:43:57.275Z,22.70
2023-05-01T14:46:28.661Z,22.60
2023-05-01T14:48:55.517Z,22.60
2023-05-01T14:51:22.551Z,22.60
2023-05-01T14:53:49.416Z,22.60
2023-05-01T14:56:16.217Z,22.60
2023-05-01T14:58:43.077Z,22.50
2023-05-01T15:01:09.904Z,22.40
2023-05-01T15:03:41.027Z,22.50
2023-05-01T15:06:08.924Z,22.50
2023-05-01T15:08:36.479Z,22.40
2023-05-01T15:11:03.468Z,22.40
2023-05-01T15:13:31.872Z,22.50
2023-05-01T15:15:59.034Z,22.60
2023-05-01T15:18:26.393Z,22.70
2023-05-01T15:20:53.470Z,22.80
2023-05-01T15:23:20.783Z,22.80
2023-05-01T15:25:50.449Z,22.80
2023-05-01T15:28:17.335Z,22.60
2023-05-01T15:30:46.266Z,22.50
2023-05-01T15:33:16.934Z,22.50
2023-05-01T15:35:46.387Z,22.40
2023-05-01T15:38:13.363Z,22.20
2023-05-01T15:40:42.729Z,22.00
2023-05-01T15:43:09.535Z,21.80
2023-05-01T15:45:42.875Z,21.70
2023-05-01T15:48:11.780Z,21.80
2023-05-01T15:50:38.696Z,22.00
2023-05-01T15:53:05.484Z,22.10
2023-05-01T15:55:32.455Z,22.10
2023-05-01T15:57:59.581Z,22.00
2023-05-01T16:00:26.441Z,21.90
2023-05-01T16:02:53.366Z,21.90
2023-05-01T16:05:24.685Z,22.00
2023-05-01T16:07:55.294Z,22.10
2023-05-01T16:10:22.794Z,22.30
2023-05-01T16:12:51.144Z,22.50
2023-05-01T16:15:18.765Z,22.60
2023-05-01T16:17:46.776Z,22.60
2023-05-01T16:20:14.851Z,22.60
2023-05-01T16:22:45.460Z,22.60
2023-05-01T16:25:12.898Z,22.70
2023-05-01T16:27:42.390Z,22.60
2023-05-01T16:30:10.419Z,22.60
2023-05-01T16:32:38.954Z,22.60
2023-05-01T16:35:05.932Z,22.50
2023-05-01T16:37:34.135Z,22.60
2023-05-01T16:40:01.893Z,22.50
2023-05-01T16:42:29.054Z,22.40
2023-05-01T16:44:56.852Z,22.40
2023-05-01T16:47:23.755Z,22.40
2023-05-01T16:49:52.362Z,22.30
2023-05-01T16:52:19.333Z,22.10
2023-05-01T16:54:46.106Z,21.90
2023-05-01T16:57:12.931Z,21.60
2023-05-01T16:59:39.747Z,21.40
2023-05-01T17:02:07.194Z,21.10
2023-05-01T17:04:34.413Z,20.90
2023-05-01T17:07:01.228Z,20.80
2023-05-01T17:09:28.087Z,20.70
2023-05-01T17:11:56.823Z,20.70
2023-05-01T17:14:23.925Z,20.60
2023-05-01T17:16:50.908Z,20.50
2023-05-01T17:19:17.816Z,20.40
2023-05-01T17:21:44.654Z,20.40
2023-05-01T17:24:13.106Z,20.30
2023-05-01T17:26:39.937Z,20.30
2023-05-01T17:29:06.730Z,20.40
2023-05-01T17:31:33.805Z,20.40
2023-05-01T17:34:00.871Z,20.50
2023-05-01T17:36:29.239Z,20.40
2023-05-01T17:38:56.332Z,20.40
2023-05-01T17:41:24.879Z,20.40
2023-05-01T17:43:51.788Z,20.50
2023-05-01T17:46:20.151Z,20.40
2023-05-01T17:48:48.538Z,20.40
2023-05-01T17:51:15.696Z,20.30
2023-05-01T17:53:42.621Z,20.30
2023-05-01T17:56:09.950Z,20.30
2023-05-01T17:58:37.004Z,20.30
2023-05-01T18:01:06.835Z,20.20
2023-05-01T18:03:34.025Z,20.20
2023-05-01T18:06:02.416Z,20.20
2023-05-01T18:08:29.403Z,20.20
2023-05-01T18:10:56.429Z,20.10
2023-05-01T18:13:28.225Z,20.10
2023-05-01T18:15:55.841Z,20.10
2023-05-01T18:18:23.179Z,20.10
2023-05-01T18:20:50.192Z,20.00
2023-05-01T18:23:18.807Z,20.00
2023-05-01T18:25:46.349Z,19.90
2023-05-01T18:28:16.315Z,19.80
2023-05-01T18:30:43.646Z,19.80
2023-05-01T18:33:11.099Z,19.80
2023-05-01T18:35:42.429Z,19.60
2023-05-01T18:38:10.385Z,19.60
2023-05-01T18:40:37.914Z,19.50
2023-05-01T18:43:05.117Z,19.40
2023-05-01T18:45:32.116Z,19.30
2023-05-01T18:48:03.290Z,19.20
2023-05-01T18:50:30.450Z,19.20
2023-05-01T18:52:57.251Z,19.10
2023-05-01T18:55:25.115Z,19.00
2023-05-01T18:57:52.194Z,18.90
2023-05-01T19:00:20.354Z,18.90
2023-05-01T19:02:52.911Z,18.80
2023-05-01T19:05:20.059Z,18.80
2023-05-01T19:07:47.132Z,18.70
2023-05-01T19:10:14.276Z,18.70
2023-05-01T19:12:42.063Z,18.60
2023-05-01T19:15:09.892Z,18.50
2023-05-01T19:17:37.290Z,18.50
2023-05-01T19:20:05.006Z,18.40
2023-05-01T19:22:32.007Z,18.30
2023-05-01T19:25:00.107Z,18.20
2023-05-01T19:27:27.441Z,18.20
2023-05-01T19:29:54.671Z,18.20
2023-05-01T19:32:22.971Z,18.10
2023-05-01T19:34:50.023Z,18.20
2023-05-01T19:37:16.878Z,18.10
2023-05-01T19:39:43.655Z,18.10
2023-05-01T19:42:10.570Z,18.10
2023-05-01T19:44:37.352Z,18.00
2023-05-01T19:47:04.127Z,18.00
2023-05-01T19:49:30.895Z,17.90
2023-05-01T19:51:57.754Z,17.90
2023-05-01T19:54:28.588Z,17.90
2023-05-01T19:56:55.959Z,17.90
2023-05-01T19:59:22.982Z,17.80
2023-05-01T20:01:50.029Z,17.80
2023-05-01T20:04:17.047Z,17.80
2023-05-01T20:06:44.059Z,17.70
2023-05-01T20:09:11.031Z,17.70
2023-05-01T20:11:37.836Z,17.60
2023-05-01T20:14:04.894Z,17.60
2023-05-01T20:16:31.924Z,17.60
2023-05-01T20:18:58.715Z,17.50
2023-05-01T20:21:25.780Z,17.40
2023-05-01T20:23:54.378Z,17.40
2023-05-01T20:26:21.423Z,17.30
2023-05-01T20:28:48.864Z,17.20
2023-05-01T20:31:16.080Z,17.20
2023-05-01T20:33:42.984Z,17.20
2023-05-01T20:36:09.829Z,17.20
2023-05-01T20:38:43.531Z,17.20
2023-05-01T20:41:10.471Z,17.10
2023-05-01T20:43:38.461Z,17.10
2023-05-01T20:46:05.578Z,17.20
2023-05-01T20:48:32.970Z,17.20
2023-05-01T20:50:59.754Z,17.30
2023-05-01T20:53:26.552Z,17.30
2023-05-01T20:55:53.449Z,17.30
2023-05-01T20:58:20.231Z,17.30
2023-05-01T21:00:47.226Z,17.30
2023-05-01T21:03:15.291Z,17.30
2023-05-01T21:05:42.398Z,17.30
2023-05-01T21:08:09.368Z,17.20
2023-05-01T21:10:36.973Z,17.20
2023-05-01T21:13:04.038Z,17.20
2023-05-01T21:15:32.096Z,17.20
2023-05-01T21:18:00.030Z,17.20
2023-05-01T21:20:32.350Z,17.20
2023-05-01T21:23:02.420Z,17.20
2023-05-01T21:25:31.836Z,17.20
2023-05-01T21:28:03.580Z,17.20
2023-05-01T21:30:34.874Z,17.30
2023-05-01T21:33:06.298Z,17.30
2023-05-01T21:35:33.551Z,17.30
2023-05-01T21:38:01.012Z,17.30
2023-05-01T21:40:27.975Z,17.30
2023-05-01T21:42:55.478Z,17.30
2023-05-01T21:45:22.749Z,17.30
2023-05-01T21:47:51.322Z,17.30
2023-05-01T21:50:19.679Z,17.30
2023-05-01T21:52:48.419Z,17.30
2023-05-01T21:55:17.476Z,17.30
2023-05-01T21:57:44.658Z,17.30
2023-05-01T22:00:12.368Z,17.20
2023-05-01T22:02:44.333Z,17.20
2023-05-01T22:05:13.573Z,17.10
2023-05-01T22:07:41.674Z,17.10
2023-05-01T22:10:10.285Z,17.00
2023-05-01T22:12:37.660Z,16.90
2023-05-01T22:15:05.007Z,16.90
2023-05-01T22:17:31.886Z,16.80
2023-05-01T22:19:59.050Z,16.80
2023-05-01T22:22:26.524Z,16.70
2023-05-01T22:24:53.495Z,16.70
2023-05-01T22:27:20.262Z,16.70
2023-05-01T22:29:47.133Z,16.60
2023-05-01T22:32:13.961Z,16.50
2023-05-01T22:34:40.785Z,16.50
2023-05-01T22:37:07.632Z,16.60
2023-05-01T22:39:36.193Z,16.70
2023-05-01T22:42:06.225Z,16.70
2023-05-01T22:44:33.311Z,16.70
2023-05-01T22:47:00.103Z,16.70
2023-05-01T22:49:28.529Z,16.80
2023-05-01T22:51:56.086Z,16.80
2023-05-01T22:54:23.182Z,16.80
2023-05-01T22:56:50.360Z,16.80
2023-05-01T22:59:17.528Z,16.90
2023-05-01T23:01:45.210Z,16.80
2023-05-01T23:04:12.829Z,16.80
2023-05-01T23:06:40.229Z,16.70
2023-05-01T23:09:07.229Z,16.70
2023-05-01T23:11:34.508Z,16.60
2023-05-01T23:14:01.631Z,16.50
2023-05-01T23:16:36.269Z,16.50
2023-05-01T23:19:03.762Z,16.50
2023-05-01T23:21:31.241Z,16.40
2023-05-01T23:23:58.011Z,16.40
2023-05-01T23:26:26.846Z,16.30
2023-05-01T23:28:53.834Z,16.40
2023-05-01T23:31:29.229Z,16.30
2023-05-01T23:33:56.174Z,16.30
2023-05-01T23:36:23.041Z,16.30
2023-05-01T23:38:49.877Z,16.30
2023-05-01T23:41:16.734Z,16.30
2023-05-01T23:43:46.653Z,16.20
2023-05-01T23:46:13.876Z,16.20
2023-05-01T23:48:41.094Z,16.10
2023-05-01T23:51:08.238Z,16.00
2023-05-01T23:53:35.229Z,16.00
2023-05-01T23:56:02.299Z,16.00
2023-05-01T23:58:29.105Z,16.00
